createdAt,value
2023-03-08T00:02:23.028Z,4.60
2023-03-08T00:04:52.800Z,4.50
2023-03-08T00:07:22.631Z,4.60
2023-03-08T00:09:52.428Z,4.60
2023-03-08T00:12:24.806Z,4.60
2023-03-08T00:14:55.075Z,4.60
2023-03-08T00:17:24.921Z,4.60
2023-03-08T00:19:54.947Z,4.60
2023-03-08T00:22:24.747Z,4.50
2023-03-08T00:24:55.997Z,4.50
2023-03-08T00:27:28.302Z,4.40
2023-03-08T00:29:58.020Z,4.40
2023-03-08T00:32:28.380Z,4.40
2023-03-08T00:34:58.239Z,4.40
2023-03-08T00:37:28.009Z,4.40
2023-03-08T00:39:57.991Z,4.40
2023-03-08T00:42:30.459Z,4.40
2023-03-08T00:45:00.281Z,4.40
2023-03-08T00:47:30.142Z,4.30
2023-03-08T00:50:00.236Z,4.30
2023-03-08T00:52:30.058Z,4.20
2023-03-08T00:54:59.997Z,4.20
2023-03-08T00:57:33.264Z,4.20
2023-03-08T01:00:08.283Z,4.20
2023-03-08T01:02:41.193Z,4.20
2023-03-08T01:05:12.328Z,4.10
2023-03-08T01:07:42.572Z,4.20
2023-03-08T01:10:13.930Z,4.10
2023-03-08T01:12:46.261Z,4.10
2023-03-08T01:15:16.351Z,4.10
2023-03-08T01:17:46.129Z,4.00
2023-03-08T01:20:16.274Z,4.00
2023-03-08T01:22:45.976Z,3.90
2023-03-08T01:25:15.691Z,3.90
2023-03-08T01:27:47.979Z,3.80
2023-03-08T01:30:18.304Z,3.80
2023-03-08T01:32:48.100Z,3.80
2023-03-08T01:35:18.020Z,3.80
2023-03-08T01:37:47.799Z,3.80
2023-03-08T01:40:18.637Z,3.80
2023-03-08T01:42:51.144Z,3.70
2023-03-08T01:46:02.904Z,3.70
2023-03-08T01:48:36.527Z,3.70
2023-03-08T01:51:09.366Z,3.70
2023-03-08T01:53:41.694Z,3.70
2023-03-08T01:56:14.410Z,3.60
2023-03-08T01:58:48.747Z,3.60
2023-03-08T02:01:19.018Z,3.50
2023-03-08T02:03:49.886Z,3.50
2023-03-08T02:06:20.630Z,3.50
2023-03-08T02:08:50.467Z,3.40
2023-03-08T02:11:23.251Z,3.40
2023-03-08T02:13:57.207Z,3.40
2023-03-08T02:16:27.028Z,3.40
2023-03-08T02:18:59.438Z,3.30
2023-03-08T02:21:30.569Z,3.20
2023-03-08T02:24:08.535Z,3.20
2023-03-08T02:26:39.821Z,3.30
2023-03-08T02:29:09.698Z,3.40
2023-03-08T02:31:39.436Z,3.30
2023-03-08T02:34:09.309Z,3.30
2023-03-08T02:36:39.193Z,3.40
2023-03-08T02:39:11.636Z,3.40
2023-03-08T02:41:41.459Z,3.40
2023-03-08T02:44:11.277Z,3.50
2023-03-08T02:46:41.075Z,3.60
2023-03-08T02:49:10.798Z,3.60
2023-03-08T02:51:40.495Z,3.70
2023-03-08T02:54:13.181Z,3.70
2023-03-08T02:56:43.968Z,3.70
2023-03-08T02:59:13.722Z,3.70
2023-03-08T03:01:43.618Z,3.70
2023-03-08T03:04:13.397Z,3.70
2023-03-08T03:06:43.295Z,3.80
2023-03-08T03:09:15.674Z,3.70
2023-03-08T03:11:45.510Z,3.80
2023-03-08T03:14:15.259Z,3.80
2023-03-08T03:16:45.094Z,3.80
2023-03-08T03:19:15.132Z,3.90
2023-03-08T03:21:44.946Z,3.80
2023-03-08T03:24:17.459Z,3.80
2023-03-08T03:26:47.213Z,3.80
2023-03-08T03:29:16.932Z,3.80
2023-03-08T03:31:46.749Z,3.90
2023-03-08T03:34:16.684Z,3.80
2023-03-08T03:36:46.399Z,3.80
2023-03-08T03:39:18.763Z,3.70
2023-03-08T03:41:48.507Z,3.80
2023-03-08T03:44:18.218Z,3.70
2023-03-08T03:46:47.999Z,3.70
2023-03-08T03:49:17.838Z,3.70
2023-03-08T03:51:47.700Z,3.60
2023-03-08T03:54:20.122Z,3.50
2023-03-08T03:56:50.082Z,3.40
2023-03-08T03:59:19.821Z,3.40
2023-03-08T04:01:49.589Z,3.40
2023-03-08T04:04:19.495Z,3.30
2023-03-08T04:06:49.359Z,3.30
2023-03-08T04:09:22.329Z,3.20
2023-03-08T04:11:52.077Z,3.30
2023-03-08T04:14:21.894Z,3.30
2023-03-08T04:16:51.633Z,3.20
2023-03-08T04:19:21.392Z,3.30
2023-03-08T04:21:51.358Z,3.30
2023-03-08T04:24:23.663Z,3.30
2023-03-08T04:26:53.485Z,3.40
2023-03-08T04:29:23.413Z,3.40
2023-03-08T04:31:55.698Z,3.40
2023-03-08T04:34:25.493Z,3.50
2023-03-08T04:36:55.235Z,3.60
2023-03-08T04:39:27.731Z,3.60
2023-03-08T04:41:57.492Z,3.70
2023-03-08T04:44:27.270Z,3.70
2023-03-08T04:46:57.152Z,3.70
2023-03-08T04:49:27.305Z,3.70
2023-03-08T04:51:57.070Z,3.80
2023-03-08T04:54:29.456Z,3.90
2023-03-08T04:56:59.366Z,3.90
2023-03-08T04:59:29.134Z,3.90
2023-03-08T05:01:58.983Z,3.90
2023-03-08T05:04:28.825Z,3.90
2023-03-08T05:06:58.542Z,3.90
2023-03-08T05:09:30.831Z,3.90
2023-03-08T05:12:00.644Z,3.90
2023-03-08T05:14:30.392Z,3.90
2023-03-08T05:17:02.518Z,3.90
2023-03-08T05:19:32.557Z,3.90
2023-03-08T05:22:02.277Z,3.90
2023-03-08T05:24:34.801Z,3.90
2023-03-08T05:27:04.529Z,3.90
2023-03-08T05:29:34.899Z,4.00
2023-03-08T05:32:05.980Z,3.90
2023-03-08T05:34:35.805Z,3.90
2023-03-08T05:37:05.564Z,3.90
2023-03-08T05:39:37.949Z,3.90
2023-03-08T05:42:08.426Z,4.00
2023-03-08T05:44:38.677Z,4.00
2023-03-08T05:47:08.873Z,4.00
2023-03-08T05:49:38.624Z,4.00
2023-03-08T05:52:08.751Z,4.00
2023-03-08T05:54:41.459Z,4.10
2023-03-08T05:57:11.349Z,4.10
2023-03-08T05:59:41.091Z,4.10
2023-03-08T06:02:11.012Z,4.10
2023-03-08T06:04:40.872Z,4.00
2023-03-08T06:07:10.662Z,4.10
2023-03-08T06:09:43.033Z,4.10
2023-03-08T06:12:12.840Z,4.10
2023-03-08T06:14:42.572Z,4.10
2023-03-08T06:17:12.316Z,4.20
2023-03-08T06:19:42.130Z,4.20
2023-03-08T06:22:11.822Z,4.20
2023-03-08T06:24:44.123Z,4.20
2023-03-08T06:27:13.819Z,4.20
2023-03-08T06:29:43.545Z,4.30
2023-03-08T06:32:13.468Z,4.30
2023-03-08T06:34:43.286Z,4.30
2023-03-08T06:37:13.067Z,4.40
2023-03-08T06:39:45.426Z,4.40
2023-03-08T06:42:15.179Z,4.50
2023-03-08T06:44:44.978Z,4.50
2023-03-08T06:47:14.722Z,4.60
2023-03-08T06:49:46.833Z,4.60
2023-03-08T06:52:16.683Z,4.60
2023-03-08T06:54:48.997Z,4.70
2023-03-08T06:57:18.885Z,4.70
2023-03-08T06:59:48.592Z,4.70
2023-03-08T07:02:18.359Z,4.70
2023-03-08T07:04:49.613Z,4.80
2023-03-08T07:07:19.668Z,4.80
2023-03-08T07:09:52.210Z,4.80
2023-03-08T07:12:21.952Z,4.80
2023-03-08T07:14:51.780Z,4.90
2023-03-08T07:17:22.032Z,4.90
2023-03-08T07:19:51.835Z,4.90
2023-03-08T07:22:21.571Z,5.00
2023-03-08T07:24:53.919Z,5.10
2023-03-08T07:27:23.660Z,5.00
2023-03-08T07:29:55.290Z,5.10
2023-03-08T07:32:29.015Z,5.10
2023-03-08T07:34:59.347Z,5.10
2023-03-08T07:37:29.162Z,5.10
2023-03-08T07:40:01.547Z,5.00
2023-03-08T07:42:31.345Z,5.10
2023-03-08T07:45:01.330Z,5.10
2023-03-08T07:47:31.122Z,5.10
2023-03-08T07:50:01.190Z,5.10
2023-03-08T07:52:31.302Z,5.10
2023-03-08T07:55:04.641Z,5.10
2023-03-08T07:57:34.598Z,5.00
2023-03-08T08:00:07.723Z,5.10
2023-03-08T08:02:38.063Z,5.00
2023-03-08T08:05:08.773Z,5.10
2023-03-08T08:07:38.675Z,5.00
2023-03-08T08:10:12.360Z,5.00
2023-03-08T08:12:42.143Z,5.10
2023-03-08T08:15:12.979Z,5.00
2023-03-08T08:17:42.782Z,5.10
2023-03-08T08:20:14.745Z,5.20
2023-03-08T08:22:44.557Z,5.20
2023-03-08T08:25:16.919Z,5.20
2023-03-08T08:27:46.692Z,5.20
2023-03-08T08:30:18.342Z,5.30
2023-03-08T08:32:48.276Z,5.30
2023-03-08T08:35:18.127Z,5.30
2023-03-08T08:37:47.863Z,5.20
2023-03-08T08:40:20.654Z,5.20
2023-03-08T08:42:52.119Z,5.30
2023-03-08T08:45:21.868Z,5.10
2023-03-08T08:47:51.650Z,5.20
2023-03-08T08:50:21.545Z,5.20
2023-03-08T08:52:51.370Z,5.00
2023-03-08T08:55:23.719Z,5.00
2023-03-08T08:57:53.674Z,5.00
2023-03-08T09:00:23.644Z,5.00
2023-03-08T09:02:53.508Z,5.10
2023-03-08T09:05:23.416Z,5.20
2023-03-08T09:07:55.615Z,5.20
2023-03-08T09:10:28.313Z,5.10
2023-03-08T09:12:59.045Z,5.30
2023-03-08T09:15:29.776Z,5.30
2023-03-08T09:17:59.647Z,5.40
2023-03-08T09:20:29.881Z,5.30
2023-03-08T09:22:59.859Z,5.30
2023-03-08T09:25:32.243Z,5.30
2023-03-08T09:28:02.064Z,5.20
2023-03-08T09:30:32.941Z,5.30
2023-03-08T09:33:04.116Z,5.30
2023-03-08T09:35:33.903Z,5.40
2023-03-08T09:38:04.530Z,5.40
2023-03-08T09:40:42.716Z,5.50
2023-03-08T09:43:24.131Z,5.50
2023-03-08T09:45:56.860Z,5.40
2023-03-08T09:48:30.225Z,5.50
2023-03-08T09:51:02.361Z,5.60
2023-03-08T09:53:37.973Z,5.60
2023-03-08T09:56:19.447Z,5.70
2023-03-08T09:58:52.590Z,5.70
2023-03-08T10:01:30.492Z,5.90
2023-03-08T10:04:22.855Z,5.90
2023-03-08T10:07:02.405Z,6.10
2023-03-08T10:09:37.052Z,6.40
2023-03-08T10:12:18.029Z,6.50
2023-03-08T10:14:51.495Z,6.70
2023-03-08T10:17:24.845Z,6.90
2023-03-08T10:20:02.089Z,6.90
2023-03-08T10:22:37.039Z,7.00
2023-03-08T10:25:22.655Z,7.00
2023-03-08T10:27:57.195Z,6.90
2023-03-08T10:30:28.036Z,7.00
2023-03-08T10:33:01.418Z,7.00
2023-03-08T10:35:36.581Z,7.10
2023-03-08T10:38:07.272Z,7.10
2023-03-08T10:40:36.972Z,7.10
2023-03-08T10:43:09.758Z,7.20
2023-03-08T10:45:39.596Z,7.30
2023-03-08T10:48:10.117Z,7.40
2023-03-08T10:50:40.590Z,7.60
2023-03-08T10:53:12.615Z,7.80
2023-03-08T10:55:46.943Z,7.90
2023-03-08T10:58:38.716Z,8.10
2023-03-08T11:01:25.151Z,8.20
2023-03-08T11:04:02.375Z,8.20
2023-03-08T11:06:32.165Z,8.30
2023-03-08T11:09:04.343Z,8.40
2023-03-08T11:11:44.153Z,8.50
2023-03-08T11:14:17.963Z,8.60
2023-03-08T11:17:13.105Z,8.80
2023-03-08T11:19:59.887Z,9.00
2023-03-08T11:22:47.787Z,9.30
2023-03-08T11:25:31.761Z,9.50
2023-03-08T11:28:14.350Z,9.70
2023-03-08T11:30:59.002Z,9.80
2023-03-08T11:33:46.834Z,9.80
2023-03-08T11:36:22.166Z,9.90
2023-03-08T11:39:00.831Z,10.10
2023-03-08T11:41:40.908Z,10.20
2023-03-08T11:44:28.014Z,10.20
2023-03-08T11:47:20.235Z,10.30
2023-03-08T11:50:05.913Z,10.40
2023-03-08T11:52:43.029Z,10.40
2023-03-08T11:55:38.468Z,10.40
2023-03-08T11:58:14.590Z,10.50
2023-03-08T12:00:47.431Z,10.50
2023-03-08T12:03:22.895Z,10.50
2023-03-08T12:05:57.571Z,10.50
2023-03-08T12:08:34.415Z,10.70
2023-03-08T12:11:08.184Z,10.70
2023-03-08T12:13:40.443Z,10.80
2023-03-08T12:16:17.616Z,10.90
2023-03-08T12:18:57.259Z,11.10
2023-03-08T12:21:40.385Z,11.30
2023-03-08T12:24:28.045Z,11.30
2023-03-08T12:27:02.679Z,11.40
2023-03-08T12:29:37.240Z,11.60
2023-03-08T12:32:08.863Z,11.50
2023-03-08T12:34:46.359Z,11.60
2023-03-08T12:37:27.638Z,11.70
2023-03-08T12:40:00.772Z,11.80
2023-03-08T12:42:40.073Z,11.80
2023-03-08T12:45:31.126Z,11.90
2023-03-08T12:48:11.799Z,11.70
2023-03-08T12:50:47.290Z,11.80
2023-03-08T12:53:25.999Z,11.90
2023-03-08T12:56:08.495Z,12.00
2023-03-08T12:58:42.007Z,12.10
2023-03-08T13:01:33.620Z,12.20
2023-03-08T13:04:04.345Z,12.10
2023-03-08T13:07:01.642Z,12.30
2023-03-08T13:09:36.035Z,12.40
2023-03-08T13:12:16.224Z,12.50
2023-03-08T13:14:48.085Z,12.50
2023-03-08T13:17:37.530Z,12.70
2023-03-08T13:20:17.095Z,12.60
2023-03-08T13:22:59.212Z,12.80
2023-03-08T13:25:58.289Z,13.00
2023-03-08T13:28:44.531Z,13.00
2023-03-08T13:31:18.775Z,13.00
2023-03-08T13:33:51.447Z,13.00
2023-03-08T13:36:23.925Z,13.10
2023-03-08T13:39:04.291Z,13.00
2023-03-08T13:41:38.897Z,13.00
2023-03-08T13:44:10.678Z,13.10
2023-03-08T13:46:43.130Z,13.00
2023-03-08T13:49:19.291Z,12.90
2023-03-08T13:51:52.564Z,12.70
2023-03-08T13:54:30.009Z,12.90
2023-03-08T13:57:01.202Z,12.90
2023-03-08T13:59:34.640Z,12.70
2023-03-08T14:02:04.503Z,12.60
2023-03-08T14:04:37.398Z,12.30
2023-03-08T14:07:07.940Z,12.20
2023-03-08T14:09:41.307Z,12.00
2023-03-08T14:12:17.713Z,12.00
2023-03-08T14:14:50.760Z,12.00
2023-03-08T14:17:23.963Z,12.00
2023-03-08T14:19:58.081Z,12.00
2023-03-08T14:22:39.295Z,12.00
2023-03-08T14:25:28.637Z,12.10
2023-03-08T14:27:59.307Z,12.00
2023-03-08T14:30:30.995Z,12.10
2023-03-08T14:33:08.518Z,12.10
2023-03-08T14:35:41.403Z,12.00
2023-03-08T14:38:16.640Z,12.00
2023-03-08T14:40:52.427Z,12.00
2023-03-08T14:43:23.812Z,11.90
2023-03-08T14:45:56.950Z,12.10
2023-03-08T14:48:28.667Z,12.20
2023-03-08T14:51:01.509Z,12.30
2023-03-08T14:53:34.574Z,12.30
2023-03-08T14:56:10.222Z,12.30
2023-03-08T14:58:42.543Z,12.20
2023-03-08T15:01:12.411Z,12.00
2023-03-08T15:03:42.175Z,11.90
2023-03-08T15:06:19.926Z,11.90
2023-03-08T15:08:50.279Z,11.90
2023-03-08T15:11:23.515Z,11.90
2023-03-08T15:13:53.726Z,11.80
2023-03-08T15:16:23.650Z,11.90
2023-03-08T15:18:53.464Z,12.00
2023-03-08T15:21:25.920Z,12.10
2023-03-08T15:23:56.748Z,12.20
2023-03-08T15:26:31.591Z,12.30
2023-03-08T15:29:03.512Z,12.40
2023-03-08T15:31:34.022Z,12.40
2023-03-08T15:34:03.862Z,12.40
2023-03-08T15:36:35.661Z,12.40
2023-03-08T15:39:05.757Z,12.30
2023-03-08T15:41:38.136Z,12.30
2023-03-08T15:44:08.270Z,12.30
2023-03-08T15:46:38.125Z,12.20
2023-03-08T15:49:08.542Z,12.20
2023-03-08T15:51:39.503Z,12.10
2023-03-08T15:54:09.778Z,12.00
2023-03-08T15:56:42.112Z,12.00
2023-03-08T15:59:11.886Z,11.80
2023-03-08T16:01:41.722Z,11.60
2023-03-08T16:04:11.534Z,11.60
2023-03-08T16:06:43.775Z,11.50
2023-03-08T16:09:13.574Z,11.50
2023-03-08T16:11:48.132Z,11.60
2023-03-08T16:14:18.713Z,11.50
2023-03-08T16:16:48.518Z,11.60
2023-03-08T16:19:18.370Z,11.60
2023-03-08T16:21:48.162Z,11.60
2023-03-08T16:24:17.921Z,11.60
2023-03-08T16:26:50.231Z,11.60
2023-03-08T16:29:19.958Z,11.60
2023-03-08T16:31:49.901Z,11.60
2023-03-08T16:34:19.792Z,11.60
2023-03-08T16:36:49.583Z,11.60
2023-03-08T16:39:19.424Z,11.50
2023-03-08T16:41:51.976Z,11.40
2023-03-08T16:44:23.568Z,11.30
2023-03-08T16:46:53.703Z,11.30
2023-03-08T16:52:11.990Z,11.20
2023-03-08T16:54:41.750Z,11.10
2023-03-08T16:57:19.388Z,11.10
2023-03-08T16:59:50.437Z,11.10
2023-03-08T17:02:22.093Z,11.00
2023-03-08T17:04:52.475Z,11.00
2023-03-08T17:07:22.565Z,11.00
2023-03-08T17:09:52.592Z,11.00
2023-03-08T17:12:24.968Z,11.00
2023-03-08T17:14:54.965Z,11.00
2023-03-08T17:17:24.726Z,11.00
2023-03-08T17:19:54.827Z,10.90
2023-03-08T17:22:24.603Z,11.00
2023-03-08T17:24:54.402Z,10.90
2023-03-08T17:27:26.875Z,10.90
2023-03-08T17:29:58.406Z,10.90
2023-03-08T17:32:28.275Z,11.00
2023-03-08T17:34:58.090Z,10.90
2023-03-08T17:37:27.919Z,11.00
2023-03-08T17:39:57.673Z,10.90
2023-03-08T17:42:30.077Z,10.90
2023-03-08T17:44:59.915Z,10.90
2023-03-08T17:47:29.652Z,11.00
2023-03-08T17:49:59.410Z,11.10
2023-03-08T17:52:29.230Z,11.10
2023-03-08T17:54:59.207Z,11.10
2023-03-08T17:57:31.582Z,11.10
2023-03-08T18:00:01.341Z,11.20
2023-03-08T18:02:33.622Z,11.20
2023-03-08T18:05:03.840Z,11.30
2023-03-08T18:07:33.818Z,11.20
2023-03-08T18:10:04.453Z,11.20
2023-03-08T18:12:40.170Z,11.20
2023-03-08T18:15:12.788Z,11.30
2023-03-08T18:17:42.618Z,11.20
2023-03-08T18:20:14.442Z,11.20
2023-03-08T18:22:45.714Z,11.20
2023-03-08T18:25:15.583Z,11.10
2023-03-08T18:27:48.140Z,11.20
2023-03-08T18:30:18.532Z,11.20
2023-03-08T18:32:48.309Z,11.30
2023-03-08T18:35:18.518Z,11.30
2023-03-08T18:37:48.283Z,11.30
2023-03-08T18:40:18.089Z,11.30
2023-03-08T18:42:50.502Z,11.30
2023-03-08T18:45:20.940Z,11.30
2023-03-08T18:47:52.855Z,11.30
2023-03-08T18:50:25.142Z,11.40
2023-03-08T18:52:54.997Z,11.30
2023-03-08T18:55:27.259Z,11.30
2023-03-08T18:57:59.582Z,11.30
2023-03-08T19:00:29.524Z,11.30
2023-03-08T19:02:59.254Z,11.20
2023-03-08T19:05:28.972Z,11.20
2023-03-08T19:07:58.822Z,11.20
2023-03-08T19:10:28.656Z,11.20
2023-03-08T19:13:01.018Z,11.10
2023-03-08T19:15:30.782Z,11.10
2023-03-08T19:18:01.643Z,11.10
2023-03-08T19:20:31.426Z,11.10
2023-03-08T19:23:01.177Z,11.20
2023-03-08T19:25:33.530Z,11.10
2023-03-08T19:28:05.946Z,11.00
2023-03-08T19:30:38.392Z,10.90
2023-03-08T19:33:08.144Z,10.70
2023-03-08T19:35:37.921Z,10.60
2023-03-08T19:38:07.806Z,10.60
2023-03-08T19:40:38.823Z,10.60
2023-03-08T19:43:11.182Z,10.60
2023-03-08T19:45:40.975Z,10.50
2023-03-08T19:48:10.804Z,10.50
2023-03-08T19:50:40.577Z,10.50
2023-03-08T19:53:10.267Z,10.40
2023-03-08T19:55:39.987Z,10.40
2023-03-08T19:58:12.322Z,10.40
2023-03-08T20:00:44.102Z,10.30
2023-03-08T20:03:14.352Z,10.30
2023-03-08T20:05:45.818Z,10.20
2023-03-08T20:08:16.231Z,10.20
2023-03-08T20:10:46.023Z,10.20
2023-03-08T20:13:18.387Z,10.20
2023-03-08T20:15:48.482Z,10.20
2023-03-08T20:18:18.363Z,10.10
2023-03-08T20:20:48.345Z,10.10
2023-03-08T20:23:18.717Z,10.00
2023-03-08T20:25:48.679Z,10.00
2023-03-08T20:28:21.256Z,10.00
2023-03-08T20:30:51.070Z,10.00
2023-03-08T20:33:21.004Z,9.90
2023-03-08T20:35:59.396Z,9.90
2023-03-08T20:38:29.968Z,9.80
2023-03-08T20:41:04.716Z,9.80
2023-03-08T20:43:37.124Z,9.80
2023-03-08T20:46:09.459Z,9.70
2023-03-08T20:48:41.323Z,9.70
2023-03-08T20:51:13.686Z,9.60
2023-03-08T20:53:44.045Z,9.60
2023-03-08T20:56:15.801Z,9.60
2023-03-08T20:58:48.434Z,9.60
2023-03-08T21:01:20.671Z,9.50
2023-03-08T21:03:50.696Z,9.60
2023-03-08T21:06:22.914Z,9.60
2023-03-08T21:08:53.451Z,9.50
2023-03-08T21:11:23.487Z,9.60
2023-03-08T21:13:56.574Z,9.50
2023-03-08T21:16:28.762Z,9.50
2023-03-08T21:19:00.386Z,9.50
2023-03-08T21:21:33.491Z,9.50
2023-03-08T21:24:05.317Z,9.50
2023-03-08T21:26:35.574Z,9.40
2023-03-08T21:29:09.880Z,9.50
2023-03-08T21:31:43.237Z,9.40
2023-03-08T21:34:15.262Z,9.50
2023-03-08T21:36:45.620Z,9.50
2023-03-08T21:39:15.713Z,9.50
2023-03-08T21:41:47.458Z,9.50
2023-03-08T21:44:22.182Z,9.60
2023-03-08T21:46:52.865Z,9.60
2023-03-08T21:49:24.749Z,9.50
2023-03-08T21:51:55.858Z,9.50
2023-03-08T21:54:27.334Z,9.50
2023-03-08T21:56:57.418Z,9.50
2023-03-08T21:59:29.745Z,9.50
2023-03-08T22:01:59.922Z,9.50
2023-03-08T22:04:30.972Z,9.50
2023-03-08T22:07:00.832Z,9.50
2023-03-08T22:09:30.688Z,9.40
2023-03-08T22:12:00.493Z,9.40
2023-03-08T22:14:33.423Z,9.40
2023-03-08T22:17:03.368Z,9.40
2023-03-08T22:19:33.138Z,9.50
2023-03-08T22:22:02.909Z,9.50
2023-03-08T22:24:32.944Z,9.50
2023-03-08T22:27:04.629Z,9.60
2023-03-08T22:29:36.938Z,9.60
2023-03-08T22:32:07.418Z,9.60
2023-03-08T22:34:37.636Z,9.70
2023-03-08T22:37:08.173Z,9.70
2023-03-08T22:39:37.915Z,9.70
2023-03-08T22:42:07.940Z,9.70
2023-03-08T22:44:40.320Z,9.70
2023-03-08T22:47:10.074Z,9.70
2023-03-08T22:49:39.886Z,9.70
2023-03-08T22:52:09.828Z,9.80
2023-03-08T22:54:39.888Z,9.70
2023-03-08T22:57:09.735Z,9.80
2023-03-08T22:59:43.448Z,9.80
2023-03-08T23:02:13.274Z,9.80
2023-03-08T23:04:43.558Z,9.80
2023-03-08T23:07:13.332Z,9.80
2023-03-08T23:09:43.284Z,9.70
2023-03-08T23:12:13.066Z,9.70
2023-03-08T23:14:45.486Z,9.60
2023-03-08T23:17:15.234Z,9.60
2023-03-08T23:19:45.697Z,9.60
2023-03-08T23:22:15.540Z,9.60
2023-03-08T23:24:45.607Z,9.60
2023-03-08T23:27:15.504Z,9.50
2023-03-08T23:29:47.811Z,9.60
2023-03-08T23:32:17.572Z,9.50
2023-03-08T23:34:47.349Z,9.60
2023-03-08T23:37:17.130Z,9.50
2023-03-08T23:39:46.930Z,9.60
2023-03-08T23:42:16.742Z,9.60
2023-03-08T23:44:49.060Z,9.60
2023-03-08T23:47:18.828Z,9.70
2023-03-08T23:49:51.627Z,9.80
2023-03-08T23:52:21.430Z,9.80
2023-03-08T23:54:51.273Z,9.80
2023-03-08T23:57:21.171Z,9.80
2023-03-08T23:59:53.525Z,9.90
